Terminal Aerodrome Forecast
Issued by NWS Portland, OR

Home | Current Version | Previous Version | Text Only | Print | Product List | Glossary On
Versions: 1 2 3 4 5 6 7 8 9 10 11 12 13 14 15 16 17 18 19 20 21 22 23 24 25 26 27 28 29 30 31 32 33 34
000
FTUS46 KPQR 292326
TAFSLE
TAF
KSLE 292326Z 3000/3024 33006KT P6SM SCT150
     FM300500 30002KT P6SM SCT050
     FM301500 17004KT P6SM SCT015
     FM301800 20006KT P6SM SCT060 OVC120=

USA.gov is the U.S. government's official web portal to all federal, state and local government web resources and services.